Portada
METAR-TAF:

METAR-TAF

Aeroports :

Àqaba, Jordània

latitud: 29-38N, longitud: 035-01E, altitud: 53 m

Observació

L'informe es va fer fa 1 hora i 5 minuts, a les 02:00 UTC
Vent calma
Temperatura 27°C
Humitat 45%
Pressió 1007 hPa
Visibilitat 10 km o més
sense núvols per sota de 1500 mi sense presència de cumulonimbus.

METAR: OJAQ 160200Z 00000KT CAVOK 27/14 Q1007 NOSIG

Hora: 06:05 (03:05 UTC)

Pronòstic

L'informe es va fer fa 4 hores i 5 minuts, a les 23:00 UTC
Pronòstic vàlid del 16 a les 00 UTC al 17 a les 06 UTC
Vent 12 kt del Nord
Visibilitat: 8000 m

TAF: OJAQ 152300Z 1600/1706 35012KT 8000 NSC

Observacions i pronòstics meteorològics de més de 4000 aeroports (METAR i TAF).

Les estacions disponibles són els punts grocs i vermells al mapa.

Posi el ratolí al punt desitjat per veure el nom de l'estació.

Feu clic per veure les observacions i els pronòstics meteorològics.

Per canviar el mapa: feu clic els botons verds amb una creu de color negre per apropar; al botó verd amb un guió per allunyar la imatge; o en les fletxes verdes per a mapes adjacents.


METAR-TAF: